Time;durP1;ratioP1;P1;durP2;ratioP2;P2;SDS_P1;SDS_P2;PMS_P1;PMS_P2;Temp;Humidity;BMP_temperature;BMP_pressure;BME280_temperature;BME280_humidity;BME280_pressure;Samples;Min_cycle;Max_cycle;Signal;HPM_P1;HPM_P2
2022/06/25 00:00:33;;;;;;;;;;;29.00;90.50;;;;;;5110646;28;19924;-81
2022/06/25 00:03:00;;;;;;;;;;;29.00;90.50;;;;;;5092410;28;19927;-80
2022/06/25 00:05:28;;;;;;;;;;;29.00;90.50;;;;;;5093751;28;19919;-80
2022/06/25 00:07:55;;;;;;;;;;;28.90;90.60;;;;;;5076170;28;19926;-80
2022/06/25 00:10:23;;;;;;;;;;;28.90;90.70;;;;;;5093386;28;20297;-82
2022/06/25 00:12:51;;;;;;;;;;;28.90;90.70;;;;;;5093268;28;20300;-80
2022/06/25 00:15:18;;;;;;;;;;;28.90;90.80;;;;;;5059990;28;1447108;-82
2022/06/25 00:17:46;;;;;;;;;;;28.80;90.90;;;;;;5093363;28;19928;-80
2022/06/25 00:20:14;;;;;;;;;;;28.80;91.00;;;;;;5111054;28;19923;-80
2022/06/25 00:22:41;;;;;;;;;;;28.80;91.00;;;;;;5076900;28;19938;-81
2022/06/25 00:25:09;;;;;;;;;;;28.90;91.00;;;;;;5093717;28;19920;-81
2022/06/25 00:27:36;;;;;;;;;;;28.90;91.00;;;;;;5111422;28;19919;-80
2022/06/25 00:30:07;;;;;;;;;;;28.90;91.00;;;;;;5110670;28;19934;-81
2022/06/25 00:32:35;;;;;;;;;;;28.90;91.10;;;;;;5092344;28;20356;-81
2022/06/25 00:35:03;;;;;;;;;;;28.80;91.10;;;;;;5075892;28;19976;-81
2022/06/25 00:37:30;;;;;;;;;;;28.80;91.30;;;;;;5110167;28;19969;-81
2022/06/25 00:39:58;;;;;;;;;;;28.80;91.40;;;;;;5076640;28;19923;-80
2022/06/25 00:42:25;;;;;;;;;;;28.80;91.50;;;;;;5076329;28;19919;-81
2022/06/25 00:44:55;;;;;;;;;;;28.80;91.50;;;;;;5093422;28;19950;-81
2022/06/25 00:47:22;;;;;;;;;;;28.90;91.60;;;;;;5110400;28;20353;-80
2022/06/25 00:49:50;;;;;;;;;;;28.90;91.60;;;;;;5110289;28;20673;-81
2022/06/25 00:52:19;;;;;;;;;;;29.00;91.60;;;;;;5093711;28;19963;-81
2022/06/25 00:54:51;;;;;;;;;;;29.00;91.60;;;;;;5074622;28;20290;-81
2022/06/25 00:57:19;;;;;;;;;;;29.00;91.60;;;;;;5076909;28;19924;-80
2022/06/25 00:59:48;;;;;;;;;;;29.00;91.60;;;;;;5076744;28;19924;-80
2022/06/25 01:02:16;;;;;;;;;;;29.00;91.60;;;;;;5093069;28;19931;-80
2022/06/25 01:04:43;;;;;;;;;;;29.00;91.60;;;;;;5075910;28;19927;-81
2022/06/25 01:07:11;;;;;;;;;;;29.00;91.70;;;;;;5092811;28;19923;-82
2022/06/25 01:09:40;;;;;;;;;;;28.90;91.70;;;;;;5093337;28;19931;-81
2022/06/25 01:12:07;;;;;;;;;;;28.90;91.80;;;;;;5076351;28;19959;-81
2022/06/25 01:14:35;;;;;;;;;;;28.90;91.90;;;;;;5111361;28;20384;-81
2022/06/25 01:17:08;;;;;;;;;;;28.90;91.90;;;;;;5075923;28;19931;-82
2022/06/25 01:19:36;;;;;;;;;;;28.80;92.00;;;;;;5092917;28;19930;-81
2022/06/25 01:22:04;;;;;;;;;;;28.80;92.00;;;;;;5111088;28;20512;-81
2022/06/25 01:24:33;;;;;;;;;;;28.80;92.10;;;;;;5110636;28;19947;-82
2022/06/25 01:27:00;;;;;;;;;;;28.80;92.20;;;;;;5110045;28;19931;-82
2022/06/25 01:29:28;;;;;;;;;;;28.80;92.20;;;;;;5093227;28;19985;-82
2022/06/25 01:31:55;;;;;;;;;;;28.90;92.20;;;;;;5093125;28;19927;-82
2022/06/25 01:34:23;;;;;;;;;;;28.80;92.20;;;;;;5076429;28;19924;-81
2022/06/25 01:36:50;;;;;;;;;;;28.80;92.30;;;;;;5109422;28;19926;-81
2022/06/25 01:39:18;;;;;;;;;;;28.70;92.40;;;;;;5110922;28;19920;-80
2022/06/25 01:41:45;;;;;;;;;;;28.70;92.50;;;;;;5092870;28;20000;-82
2022/06/25 01:44:13;;;;;;;;;;;28.70;92.50;;;;;;5126945;28;19930;-81
2022/06/25 01:46:40;;;;;;;;;;;28.60;92.60;;;;;;5076423;28;20304;-81
2022/06/25 01:49:10;;;;;;;;;;;28.60;92.70;;;;;;5109023;28;19923;-81
2022/06/25 01:51:42;;;;;;;;;;;28.50;92.70;;;;;;5090652;28;20444;-81
2022/06/25 01:54:09;;;;;;;;;;;28.50;92.80;;;;;;5092293;28;19930;-81
2022/06/25 01:56:37;;;;;;;;;;;28.50;92.90;;;;;;5075928;28;19923;-81
2022/06/25 01:59:04;;;;;;;;;;;28.50;93.00;;;;;;5092360;28;20695;-81
2022/06/25 02:01:32;;;;;;;;;;;28.50;93.00;;;;;;5109831;28;20450;-81
2022/06/25 02:03:59;;;;;;;;;;;28.50;93.10;;;;;;5111055;28;19986;-81
2022/06/25 02:06:27;;;;;;;;;;;28.50;93.10;;;;;;5075948;28;20014;-82
2022/06/25 02:08:59;;;;;;;;;;;28.50;93.10;;;;;;5125983;28;20052;-81
2022/06/25 02:11:27;;;;;;;;;;;28.50;93.10;;;;;;5092209;28;19966;-82
2022/06/25 02:13:54;;;;;;;;;;;28.50;93.10;;;;;;5091724;28;19920;-81
2022/06/25 02:16:22;;;;;;;;;;;28.50;93.20;;;;;;5093811;28;20022;-81
2022/06/25 02:18:49;;;;;;;;;;;28.50;93.20;;;;;;5095877;28;20036;-81
2022/06/25 02:21:17;;;;;;;;;;;28.50;93.30;;;;;;5095757;28;19930;-81
2022/06/25 02:23:44;;;;;;;;;;;28.40;93.40;;;;;;5130249;27;20461;-81
2022/06/25 02:26:11;;;;;;;;;;;28.30;93.60;;;;;;5095879;28;20007;-81
2022/06/25 02:28:39;;;;;;;;;;;28.10;93.80;;;;;;5114183;28;19920;-81
2022/06/25 02:31:06;;;;;;;;;;;28.10;94.00;;;;;;5095377;28;19949;-81
2022/06/25 02:33:33;;;;;;;;;;;28.00;93.90;;;;;;5096139;28;19923;-81
2022/06/25 02:36:01;;;;;;;;;;;27.60;94.10;;;;;;5096089;28;19967;-81
2022/06/25 02:38:29;;;;;;;;;;;27.60;94.30;;;;;;5095770;28;19950;-81
2022/06/25 02:40:57;;;;;;;;;;;27.60;94.50;;;;;;5078612;28;19969;-80
2022/06/25 02:43:29;;;;;;;;;;;27.40;94.70;;;;;;5095891;28;20289;-81
2022/06/25 02:46:15;;;;;;;;;;;27.30;94.90;;;;;;5095569;28;19946;-82
2022/06/25 02:48:42;;;;;;;;;;;27.30;95.00;;;;;;5101131;28;20597;-81
2022/06/25 02:51:13;;;;;;;;;;;27.30;95.20;;;;;;5093269;28;19927;-81
2022/06/25 02:53:40;;;;;;;;;;;27.30;95.00;;;;;;5095367;28;19931;-81
2022/06/25 02:58:54;;;;;;;;;;;27.30;95.00;;;;;;5095151;28;20009;-81
2022/06/25 03:01:29;;;;;;;;;;;27.30;94.90;;;;;;5075601;28;20389;-81
2022/06/25 03:03:57;;;;;;;;;;;27.30;94.90;;;;;;5105924;28;20024;-82
2022/06/25 03:06:26;;;;;;;;;;;27.30;95.00;;;;;;5078250;28;19923;-81
2022/06/25 03:08:56;;;;;;;;;;;27.30;95.00;;;;;;5078006;28;20573;-82
2022/06/25 03:11:23;;;;;;;;;;;27.30;94.90;;;;;;5095349;28;19923;-81
2022/06/25 03:13:51;;;;;;;;;;;27.40;95.00;;;;;;5077859;28;19919;-80
2022/06/25 03:16:20;;;;;;;;;;;27.40;94.90;;;;;;5111738;28;20332;-81
2022/06/25 03:18:50;;;;;;;;;;;27.50;94.80;;;;;;5094859;28;20464;-81
2022/06/25 03:21:20;;;;;;;;;;;27.50;94.70;;;;;;5112936;28;19919;-80
2022/06/25 03:23:56;;;;;;;;;;;27.60;94.70;;;;;;5094997;28;19927;-81
2022/06/25 03:26:24;;;;;;;;;;;27.60;94.60;;;;;;5111526;28;20018;-81
2022/06/25 03:28:55;;;;;;;;;;;27.60;94.50;;;;;;5076305;28;19963;-81
2022/06/25 03:31:24;;;;;;;;;;;27.70;94.50;;;;;;5094617;28;19923;-81
2022/06/25 03:33:52;;;;;;;;;;;27.70;94.50;;;;;;5094688;28;19930;-81
2022/06/25 03:36:45;;;;;;;;;;;27.70;94.70;;;;;;5107526;28;19928;-81
2022/06/25 03:39:12;;;;;;;;;;;27.60;94.40;;;;;;5094041;28;19919;-82
2022/06/25 03:41:42;;;;;;;;;;;27.60;94.50;;;;;;5094355;28;20480;-82
2022/06/25 03:44:22;;;;;;;;;;;27.70;94.40;;;;;;5092883;28;20444;-81
2022/06/25 03:46:56;;;;;;;;;;;27.70;94.30;;;;;;5078426;28;19934;-81
2022/06/25 03:49:25;;;;;;;;;;;27.80;94.20;;;;;;5085932;28;19924;-81
2022/06/25 03:51:57;;;;;;;;;;;27.80;94.10;;;;;;5078148;28;19943;-79
2022/06/25 03:54:26;;;;;;;;;;;27.80;94.10;;;;;;5094048;28;20399;-81
2022/06/25 03:56:54;;;;;;;;;;;27.90;94.00;;;;;;5093995;28;20385;-82
2022/06/25 03:59:28;;;;;;;;;;;27.90;94.10;;;;;;5093809;28;19930;-81
2022/06/25 04:02:00;;;;;;;;;;;28.00;94.00;;;;;;5093541;28;19926;-82
2022/06/25 04:04:44;;;;;;;;;;;28.10;94.00;;;;;;5075922;28;20347;-82
2022/06/25 04:07:13;;;;;;;;;;;28.20;93.90;;;;;;5076187;28;19920;-82
2022/06/25 04:09:40;;;;;;;;;;;28.20;93.80;;;;;;5108360;28;20392;-81
2022/06/25 04:12:08;;;;;;;;;;;28.20;93.70;;;;;;5077353;28;19930;-81
2022/06/25 04:14:37;;;;;;;;;;;28.30;93.70;;;;;;5093982;28;19924;-81
2022/06/25 04:17:06;;;;;;;;;;;28.40;93.60;;;;;;5076814;28;20369;-81
2022/06/25 04:19:40;;;;;;;;;;;28.50;93.50;;;;;;5093707;28;19920;-81
2022/06/25 04:22:11;;;;;;;;;;;28.60;93.40;;;;;;5093740;28;20281;-82
2022/06/25 04:24:40;;;;;;;;;;;28.70;93.00;;;;;;5110820;28;19924;-81
2022/06/25 04:29:03;;;;;;;;;;;28.70;92.80;;;;;;5094545;28;20380;-82
2022/06/25 04:29:55;;;;;;;;;;;28.90;92.70;;;;;;5076586;28;19920;-81
2022/06/25 04:32:23;;;;;;;;;;;29.00;92.50;;;;;;5093865;28;19928;-81
2022/06/25 04:35:07;;;;;;;;;;;29.10;92.20;;;;;;5093218;28;19934;-82
2022/06/25 04:37:37;;;;;;;;;;;29.30;91.90;;;;;;5109949;28;19919;-81
2022/06/25 04:40:05;;;;;;;;;;;29.30;91.60;;;;;;5107754;28;19924;-82
2022/06/25 04:42:32;;;;;;;;;;;29.50;91.50;;;;;;5110266;28;19931;-80
2022/06/25 04:45:00;;;;;;;;;;;29.70;91.40;;;;;;5076276;28;19945;-81
2022/06/25 04:47:32;;;;;;;;;;;29.80;91.20;;;;;;5093805;28;19970;-81
2022/06/25 04:50:20;;;;;;;;;;;30.00;91.10;;;;;;5110227;28;20452;-81
2022/06/25 04:52:47;;;;;;;;;;;30.10;90.50;;;;;;5076315;28;19927;-81
2022/06/25 04:55:15;;;;;;;;;;;30.20;90.20;;;;;;5109816;28;20388;-82
2022/06/25 04:57:43;;;;;;;;;;;30.30;90.00;;;;;;5093443;28;19965;-82
2022/06/25 05:00:30;;;;;;;;;;;30.40;89.60;;;;;;5100932;28;19973;-82
2022/06/25 05:03:00;;;;;;;;;;;30.60;89.20;;;;;;5106090;28;19919;-80
2022/06/25 05:05:27;;;;;;;;;;;30.70;88.60;;;;;;5076159;28;19953;-80
2022/06/25 05:07:55;;;;;;;;;;;30.90;88.50;;;;;;5076208;28;19943;-81
2022/06/25 05:10:22;;;;;;;;;;;31.00;88.20;;;;;;5076772;28;19919;-81
2022/06/25 05:15:36;;;;;;;;;;;31.10;86.60;;;;;;5110425;28;19997;-81
2022/06/25 05:18:04;;;;;;;;;;;31.20;86.40;;;;;;5076277;28;19919;-82
2022/06/25 05:20:31;;;;;;;;;;;31.30;85.80;;;;;;5075512;28;20354;-81
2022/06/25 05:22:59;;;;;;;;;;;31.40;85.80;;;;;;5104773;28;19931;-82
2022/06/25 05:25:28;;;;;;;;;;;31.60;85.30;;;;;;5106948;28;20332;-82
2022/06/25 05:27:56;;;;;;;;;;;31.70;84.20;;;;;;5090703;28;19973;-82
2022/06/25 05:30:23;;;;;;;;;;;31.80;82.50;;;;;;5108953;28;19955;-81
2022/06/25 05:32:51;;;;;;;;;;;32.00;82.70;;;;;;5109072;28;19930;-83
2022/06/25 05:35:18;;;;;;;;;;;32.10;82.10;;;;;;5090522;28;20027;-82
2022/06/25 05:37:46;;;;;;;;;;;32.20;81.90;;;;;;5093353;28;19999;-82
2022/06/25 05:40:13;;;;;;;;;;;32.30;81.20;;;;;;5107812;28;19935;-81
2022/06/25 05:42:41;;;;;;;;;;;32.40;80.10;;;;;;5091128;28;20644;-82
2022/06/25 05:45:10;;;;;;;;;;;32.60;79.40;;;;;;5105272;28;20286;-82
2022/06/25 05:47:37;;;;;;;;;;;32.70;78.90;;;;;;5075589;28;20380;-82
2022/06/25 05:50:06;;;;;;;;;;;32.80;78.70;;;;;;5109718;28;19924;-82
2022/06/25 05:52:33;;;;;;;;;;;32.90;78.00;;;;;;5111639;28;19942;-80
2022/06/25 05:55:01;;;;;;;;;;;33.00;77.10;;;;;;5126680;27;19920;-81
2022/06/25 05:57:28;;;;;;;;;;;33.10;76.80;;;;;;5112316;28;19923;-81
2022/06/25 05:59:55;;;;;;;;;;;33.20;76.00;;;;;;5093483;28;19977;-82
2022/06/25 06:02:23;;;;;;;;;;;33.30;74.90;;;;;;5096946;28;20340;-82
2022/06/25 06:04:50;;;;;;;;;;;33.40;74.70;;;;;;5097916;28;19923;-82
2022/06/25 06:07:17;;;;;;;;;;;33.50;74.60;;;;;;5065507;28;19934;-82
2022/06/25 06:09:45;;;;;;;;;;;33.60;74.00;;;;;;5099265;28;19924;-82
2022/06/25 06:12:12;;;;;;;;;;;33.70;73.40;;;;;;5117493;28;19946;-82
2022/06/25 06:14:40;;;;;;;;;;;33.80;73.00;;;;;;5118237;28;19926;-82
2022/06/25 06:17:08;;;;;;;;;;;33.90;71.10;;;;;;5120472;28;19994;-82
2022/06/25 06:19:35;;;;;;;;;;;34.10;71.30;;;;;;5090013;28;20350;-81
2022/06/25 06:22:03;;;;;;;;;;;34.20;70.80;;;;;;5063423;28;19919;-81
2022/06/25 06:24:30;;;;;;;;;;;34.30;71.10;;;;;;5114683;28;19924;-82
2022/06/25 06:26:57;;;;;;;;;;;34.30;70.90;;;;;;5117843;28;19924;-82
2022/06/25 06:29:25;;;;;;;;;;;34.50;69.70;;;;;;5118509;28;19963;-82
2022/06/25 06:31:52;;;;;;;;;;;34.60;69.60;;;;;;5095576;28;20266;-82
2022/06/25 06:34:20;;;;;;;;;;;34.50;69.30;;;;;;5095298;28;19930;-82
2022/06/25 06:36:47;;;;;;;;;;;34.60;70.20;;;;;;5096591;28;19920;-82
2022/06/25 06:39:14;;;;;;;;;;;34.70;69.30;;;;;;5078884;28;20026;-82
2022/06/25 06:41:42;;;;;;;;;;;34.70;69.20;;;;;;5098359;28;20435;-83
2022/06/25 06:44:09;;;;;;;;;;;34.80;69.30;;;;;;5062124;28;19924;-82
2022/06/25 06:46:39;;;;;;;;;;;34.90;69.40;;;;;;5095465;28;19946;-82
2022/06/25 06:49:06;;;;;;;;;;;35.00;68.70;;;;;;5078955;28;19967;-82
2022/06/25 06:51:34;;;;;;;;;;;35.00;68.30;;;;;;5079547;28;19931;-82
2022/06/25 06:54:01;;;;;;;;;;;35.10;68.60;;;;;;5078787;28;19920;-82
2022/06/25 06:56:28;;;;;;;;;;;35.20;68.50;;;;;;5060185;28;20624;-82
2022/06/25 06:58:57;;;;;;;;;;;35.30;68.40;;;;;;5078294;28;19963;-82
2022/06/25 07:01:24;;;;;;;;;;;35.30;67.80;;;;;;5096526;28;19924;-83
2022/06/25 07:03:51;;;;;;;;;;;35.50;68.00;;;;;;5094732;28;19924;-82
2022/06/25 07:06:19;;;;;;;;;;;35.50;68.20;;;;;;5095653;28;19932;-83
2022/06/25 07:08:47;;;;;;;;;;;35.50;66.90;;;;;;5096979;28;20301;-82
2022/06/25 07:11:28;;;;;;;;;;;35.60;67.40;;;;;;5081242;28;20021;-82
2022/06/25 07:13:56;;;;;;;;;;;35.70;67.20;;;;;;5062262;28;19924;-83
2022/06/25 07:16:24;;;;;;;;;;;35.70;66.80;;;;;;5078092;28;19926;-82
2022/06/25 07:18:51;;;;;;;;;;;35.70;66.60;;;;;;5079415;28;19920;-82
2022/06/25 07:21:19;;;;;;;;;;;35.70;67.40;;;;;;5092511;28;19928;-81
2022/06/25 07:23:47;;;;;;;;;;;35.80;66.90;;;;;;5094485;28;19924;-80
2022/06/25 07:26:14;;;;;;;;;;;35.80;66.90;;;;;;5106598;28;19989;-81
2022/06/25 07:28:42;;;;;;;;;;;35.90;67.30;;;;;;5074460;28;19924;-80
2022/06/25 07:31:09;;;;;;;;;;;35.90;66.90;;;;;;5112661;27;20385;-80
2022/06/25 07:33:37;;;;;;;;;;;36.00;67.20;;;;;;5088224;28;19920;-79
2022/06/25 07:36:04;;;;;;;;;;;36.00;67.00;;;;;;5092473;28;20019;-79
2022/06/25 07:38:32;;;;;;;;;;;36.00;66.90;;;;;;5100486;28;20377;-80
2022/06/25 07:40:59;;;;;;;;;;;36.10;66.50;;;;;;5091022;28;19977;-80
2022/06/25 07:43:27;;;;;;;;;;;36.10;66.30;;;;;;5094099;28;20034;-80
2022/06/25 07:45:55;;;;;;;;;;;36.20;66.20;;;;;;5109799;28;19924;-80
2022/06/25 07:48:23;;;;;;;;;;;36.10;65.90;;;;;;5076967;28;20010;-79
2022/06/25 07:53:36;;;;;;;;;;;36.20;65.70;;;;;;5112241;28;19919;-80
2022/06/25 07:56:04;;;;;;;;;;;36.30;64.90;;;;;;5085561;28;20384;-80
2022/06/25 07:58:31;;;;;;;;;;;36.30;65.50;;;;;;5055694;28;19924;-80
2022/06/25 08:00:59;;;;;;;;;;;36.30;65.50;;;;;;5089292;28;19935;-80
2022/06/25 08:03:26;;;;;;;;;;;36.30;65.20;;;;;;5106665;28;19977;-79
2022/06/25 08:05:55;;;;;;;;;;;36.20;64.80;;;;;;5056242;28;20481;-80
2022/06/25 08:08:22;;;;;;;;;;;36.30;65.30;;;;;;5091225;28;19924;-80
2022/06/25 08:10:51;;;;;;;;;;;36.40;64.70;;;;;;5074055;28;19945;-80
2022/06/25 08:13:20;;;;;;;;;;;36.40;65.00;;;;;;5074154;28;19924;-80
2022/06/25 08:15:48;;;;;;;;;;;36.40;64.90;;;;;;5056399;28;19920;-80
2022/06/25 08:18:16;;;;;;;;;;;36.50;64.30;;;;;;5073340;28;19930;-80
2022/06/25 08:20:43;;;;;;;;;;;36.40;64.50;;;;;;5073494;28;20266;-79
2022/06/25 08:23:10;;;;;;;;;;;36.50;63.60;;;;;;5109590;28;19927;-80
2022/06/25 08:25:38;;;;;;;;;;;36.50;64.40;;;;;;5094194;28;19923;-79
2022/06/25 08:28:05;;;;;;;;;;;36.70;64.20;;;;;;5094021;28;19923;-78
2022/06/25 08:30:33;;;;;;;;;;;36.80;63.60;;;;;;5077234;28;19924;-79
2022/06/25 08:33:01;;;;;;;;;;;36.70;63.40;;;;;;5111499;28;19955;-79
2022/06/25 08:35:28;;;;;;;;;;;36.70;63.10;;;;;;5077336;28;19953;-80
2022/06/25 08:37:56;;;;;;;;;;;36.60;63.30;;;;;;5076792;28;20018;-79
2022/06/25 08:40:23;;;;;;;;;;;36.60;63.40;;;;;;5111609;28;20120;-78
2022/06/25 08:42:51;;;;;;;;;;;36.60;63.00;;;;;;5110696;28;19920;-80
2022/06/25 08:45:18;;;;;;;;;;;36.50;63.40;;;;;;5093491;28;20764;-79
2022/06/25 08:47:46;;;;;;;;;;;36.60;63.30;;;;;;5111436;28;19923;-80
2022/06/25 08:50:15;;;;;;;;;;;36.60;63.40;;;;;;5111669;28;19978;-79
2022/06/25 08:52:46;;;;;;;;;;;36.70;62.40;;;;;;5105798;28;19971;-79
2022/06/25 08:55:19;;;;;;;;;;;36.80;62.20;;;;;;5093373;28;20070;-80
2022/06/25 08:57:47;;;;;;;;;;;36.90;62.30;;;;;;5076957;28;19923;-80
2022/06/25 09:00:15;;;;;;;;;;;37.00;62.20;;;;;;5111375;28;19966;-80
2022/06/25 09:02:46;;;;;;;;;;;37.00;63.30;;;;;;5111485;28;20008;-80
2022/06/25 09:05:13;;;;;;;;;;;37.00;63.80;;;;;;5109974;28;19926;-80
2022/06/25 09:07:54;;;;;;;;;;;37.00;63.80;;;;;;5110122;28;19931;-80
2022/06/25 09:10:23;;;;;;;;;;;37.00;63.90;;;;;;5109889;28;19927;-79
2022/06/25 09:12:54;;;;;;;;;;;37.00;63.60;;;;;;5076806;28;19928;-79
2022/06/25 09:15:22;;;;;;;;;;;37.00;63.60;;;;;;5055998;28;20405;-79
2022/06/25 09:17:51;;;;;;;;;;;37.10;63.60;;;;;;5089672;28;19919;-80
2022/06/25 09:20:21;;;;;;;;;;;37.10;63.30;;;;;;5053490;28;19930;-79
2022/06/25 09:22:55;;;;;;;;;;;37.00;63.50;;;;;;5069759;28;19927;-79
2022/06/25 09:25:27;;;;;;;;;;;36.80;63.20;;;;;;5068296;28;19928;-79
2022/06/25 09:27:56;;;;;;;;;;;36.80;62.90;;;;;;5071548;28;19946;-79
2022/06/25 09:30:28;;;;;;;;;;;36.80;62.60;;;;;;5074659;28;19960;-79
2022/06/25 09:32:57;;;;;;;;;;;36.80;63.10;;;;;;5056787;28;19928;-80
2022/06/25 09:35:39;;;;;;;;;;;36.80;63.50;;;;;;5056902;28;19964;-79
2022/06/25 09:38:06;;;;;;;;;;;36.80;63.30;;;;;;5056430;28;19924;-80
2022/06/25 09:40:34;;;;;;;;;;;37.00;63.40;;;;;;5073286;28;19979;-80
2022/06/25 09:43:21;;;;;;;;;;;36.90;62.70;;;;;;5055937;28;20382;-80
2022/06/25 09:45:51;;;;;;;;;;;37.00;62.50;;;;;;5073277;28;19979;-78
2022/06/25 09:48:18;;;;;;;;;;;37.00;63.20;;;;;;5056157;28;19924;-80
2022/06/25 09:51:19;;;;;;;;;;;36.90;63.10;;;;;;5072857;28;19920;-79
2022/06/25 09:53:47;;;;;;;;;;;36.90;63.50;;;;;;5023987;28;20556;-79
2022/06/25 09:56:18;;;;;;;;;;;36.90;63.20;;;;;;5073321;28;19921;-79
2022/06/25 09:58:47;;;;;;;;;;;37.00;63.80;;;;;;5039680;28;19928;-79
2022/06/25 10:01:16;;;;;;;;;;;37.10;64.00;;;;;;5038840;28;19924;-80
2022/06/25 10:03:44;;;;;;;;;;;37.10;63.90;;;;;;5072774;28;19924;-79
2022/06/25 10:06:13;;;;;;;;;;;37.20;63.90;;;;;;5072843;28;19974;-80
2022/06/25 10:08:41;;;;;;;;;;;37.20;63.70;;;;;;5056126;28;20301;-79
2022/06/25 10:11:10;;;;;;;;;;;37.30;63.70;;;;;;5055721;28;19924;-80
2022/06/25 10:13:38;;;;;;;;;;;37.00;63.20;;;;;;5055903;28;19927;-79
2022/06/25 10:16:05;;;;;;;;;;;37.00;64.10;;;;;;5077714;28;19923;-79
2022/06/25 10:18:35;;;;;;;;;;;36.90;63.50;;;;;;5114575;28;19976;-79
2022/06/25 10:21:03;;;;;;;;;;;36.70;63.70;;;;;;5112974;28;19928;-79
2022/06/25 10:23:31;;;;;;;;;;;36.70;64.30;;;;;;5095828;28;19924;-79
2022/06/25 10:25:59;;;;;;;;;;;36.60;63.40;;;;;;5113008;28;19927;-79
2022/06/25 10:28:28;;;;;;;;;;;36.60;64.00;;;;;;5114204;28;20358;-79
2022/06/25 10:30:57;;;;;;;;;;;36.70;63.30;;;;;;5113514;28;19931;-78
2022/06/25 10:33:28;;;;;;;;;;;36.80;63.30;;;;;;5095859;28;19926;-79
2022/06/25 10:36:01;;;;;;;;;;;36.90;63.70;;;;;;5096588;28;19920;-79
2022/06/25 10:38:28;;;;;;;;;;;36.90;63.50;;;;;;5078959;28;20380;-80
2022/06/25 10:40:55;;;;;;;;;;;37.00;63.40;;;;;;5077861;28;19930;-79
2022/06/25 10:43:35;;;;;;;;;;;36.90;63.10;;;;;;5112274;28;20022;-79
2022/06/25 10:46:22;;;;;;;;;;;36.90;63.60;;;;;;5095923;28;20320;-79
2022/06/25 10:49:10;;;;;;;;;;;36.80;64.00;;;;;;5112726;28;20424;-79
2022/06/25 10:51:42;;;;;;;;;;;36.90;64.00;;;;;;5111887;28;20376;-80
2022/06/25 10:54:35;;;;;;;;;;;36.80;64.10;;;;;;5095237;28;19924;-80
2022/06/25 10:57:04;;;;;;;;;;;36.90;64.30;;;;;;5088928;28;19931;-79
2022/06/25 10:59:46;;;;;;;;;;;36.80;63.60;;;;;;5078858;28;20328;-79
2022/06/25 11:02:15;;;;;;;;;;;36.60;63.50;;;;;;5079201;28;19920;-79
2022/06/25 11:04:48;;;;;;;;;;;36.50;64.00;;;;;;5113818;28;20300;-79
2022/06/25 11:07:17;;;;;;;;;;;36.50;64.40;;;;;;5095283;28;20303;-79
2022/06/25 11:09:55;;;;;;;;;;;36.40;64.50;;;;;;5094996;28;19923;-80
2022/06/25 11:12:23;;;;;;;;;;;36.30;64.90;;;;;;5076670;28;20064;-80
2022/06/25 11:14:58;;;;;;;;;;;36.40;65.00;;;;;;5093455;28;19929;-80
2022/06/25 11:17:25;;;;;;;;;;;36.10;65.20;;;;;;5112998;28;19920;-79
2022/06/25 11:19:52;;;;;;;;;;;36.20;65.20;;;;;;5095396;28;19970;-80
2022/06/25 11:22:20;;;;;;;;;;;36.20;65.30;;;;;;5094886;28;19927;-79
2022/06/25 11:30:23;;;;;;;;;;;36.20;65.80;;;;;;5112526;28;19934;-79
2022/06/25 11:32:51;;;;;;;;;;;36.10;65.80;;;;;;5112777;28;19935;-79
2022/06/25 11:35:18;;;;;;;;;;;36.10;65.50;;;;;;5094678;28;20289;-79
2022/06/25 11:37:46;;;;;;;;;;;36.00;66.10;;;;;;5112394;28;19933;-80
2022/06/25 11:40:14;;;;;;;;;;;36.10;66.30;;;;;;5094709;28;19969;-80
2022/06/25 11:42:43;;;;;;;;;;;36.00;65.20;;;;;;5077892;28;19970;-78
2022/06/25 11:45:10;;;;;;;;;;;35.90;64.70;;;;;;5077743;28;19928;-79
2022/06/25 11:47:38;;;;;;;;;;;35.90;64.70;;;;;;5091688;28;19965;-80
2022/06/25 11:50:07;;;;;;;;;;;36.00;64.60;;;;;;5059628;28;19927;-79
2022/06/25 11:52:38;;;;;;;;;;;36.10;64.80;;;;;;5097694;28;19938;-79
2022/06/25 11:55:05;;;;;;;;;;;36.20;64.70;;;;;;5094812;28;20647;-80
2022/06/25 11:57:38;;;;;;;;;;;36.10;64.20;;;;;;5112052;28;20262;-79
2022/06/25 12:00:09;;;;;;;;;;;36.10;64.10;;;;;;5073982;28;19920;-79
2022/06/25 12:02:37;;;;;;;;;;;36.10;64.60;;;;;;5057501;28;19993;-79
2022/06/25 12:05:04;;;;;;;;;;;35.90;64.30;;;;;;5075009;28;20387;-79
2022/06/25 12:07:34;;;;;;;;;;;35.90;65.00;;;;;;5077544;28;19926;-80
2022/06/25 12:10:03;;;;;;;;;;;35.90;64.90;;;;;;5112193;28;20395;-79
2022/06/25 12:12:31;;;;;;;;;;;36.00;64.90;;;;;;5094224;28;19931;-81
2022/06/25 12:15:01;;;;;;;;;;;35.90;65.70;;;;;;5093603;28;19934;-81
2022/06/25 12:17:37;;;;;;;;;;;36.00;65.50;;;;;;5095058;28;19959;-81
2022/06/25 12:20:09;;;;;;;;;;;35.90;65.10;;;;;;5112812;28;19923;-75
2022/06/25 12:22:38;;;;;;;;;;;35.90;66.40;;;;;;5076900;28;19930;-74
2022/06/25 12:25:10;;;;;;;;;;;35.70;67.20;;;;;;5093416;28;19920;-75
2022/06/25 12:27:44;;;;;;;;;;;35.40;65.10;;;;;;5077087;28;19935;-74
2022/06/25 12:30:12;;;;;;;;;;;35.30;64.80;;;;;;5076914;28;19931;-75
2022/06/25 12:32:41;;;;;;;;;;;35.30;64.70;;;;;;5093597;28;19923;-72
2022/06/25 12:35:15;;;;;;;;;;;35.30;64.20;;;;;;5076646;28;19924;-73
2022/06/25 12:37:43;;;;;;;;;;;35.50;63.90;;;;;;5056587;28;19919;-72
2022/06/25 12:40:11;;;;;;;;;;;35.60;62.60;;;;;;5075212;28;20375;-72
2022/06/25 12:42:52;;;;;;;;;;;35.60;62.50;;;;;;5093800;28;19919;-72
2022/06/25 12:45:20;;;;;;;;;;;35.70;62.10;;;;;;5093272;28;20362;-77
2022/06/25 12:47:47;;;;;;;;;;;35.70;61.90;;;;;;5093595;28;19924;-74
2022/06/25 12:50:25;;;;;;;;;;;35.60;61.40;;;;;;5076508;28;19921;-74
2022/06/25 12:52:54;;;;;;;;;;;35.70;62.50;;;;;;5109775;28;19961;-78
2022/06/25 12:55:23;;;;;;;;;;;35.80;62.20;;;;;;5108119;28;20060;-75
2022/06/25 12:57:53;;;;;;;;;;;35.80;61.90;;;;;;5110194;28;20018;-74
2022/06/25 13:00:22;;;;;;;;;;;35.80;62.20;;;;;;5109872;28;20061;-73
2022/06/25 13:02:50;;;;;;;;;;;35.90;61.90;;;;;;5109488;28;19931;-73
2022/06/25 13:05:18;;;;;;;;;;;35.80;61.60;;;;;;5109281;28;19930;-75
2022/06/25 13:07:46;;;;;;;;;;;35.70;61.60;;;;;;5109900;28;20007;-72
2022/06/25 13:10:15;;;;;;;;;;;35.80;62.30;;;;;;5109654;28;19924;-72
2022/06/25 13:12:43;;;;;;;;;;;35.80;61.70;;;;;;5110381;28;19924;-73
2022/06/25 13:15:11;;;;;;;;;;;35.90;61.40;;;;;;5109253;28;20370;-72
2022/06/25 13:17:41;;;;;;;;;;;35.80;61.30;;;;;;5093589;28;20300;-73
2022/06/25 13:20:09;;;;;;;;;;;35.70;61.20;;;;;;5076123;28;19923;-73
2022/06/25 13:22:38;;;;;;;;;;;35.60;61.30;;;;;;5075214;28;19927;-73
2022/06/25 13:25:09;;;;;;;;;;;35.50;61.10;;;;;;5075608;28;19931;-73
2022/06/25 13:27:37;;;;;;;;;;;35.50;60.80;;;;;;5075911;28;19977;-75
2022/06/25 13:30:05;;;;;;;;;;;35.40;60.60;;;;;;5111057;28;19924;-74
2022/06/25 13:32:33;;;;;;;;;;;35.40;60.50;;;;;;5109997;28;19920;-73
2022/06/25 13:35:03;;;;;;;;;;;35.40;60.40;;;;;;5092775;28;19930;-73
2022/06/25 13:37:30;;;;;;;;;;;35.40;60.00;;;;;;5110634;28;19923;-72
2022/06/25 13:39:58;;;;;;;;;;;35.20;59.90;;;;;;5092695;28;20671;-73
2022/06/25 13:42:26;;;;;;;;;;;35.20;59.70;;;;;;5109837;28;19927;-73
2022/06/25 13:44:54;;;;;;;;;;;35.20;59.60;;;;;;5107077;28;20015;-73
2022/06/25 13:47:22;;;;;;;;;;;35.20;60.00;;;;;;5109797;28;19927;-72
2022/06/25 13:49:49;;;;;;;;;;;35.20;60.50;;;;;;5093047;28;20687;-74
2022/06/25 13:52:17;;;;;;;;;;;35.30;60.90;;;;;;5110955;28;20258;-72
2022/06/25 13:54:44;;;;;;;;;;;35.30;60.80;;;;;;5091880;28;19926;-72
2022/06/25 13:57:11;;;;;;;;;;;35.30;60.70;;;;;;5109251;28;20683;-73
2022/06/25 13:59:39;;;;;;;;;;;35.40;60.80;;;;;;5109713;28;19924;-74
2022/06/25 14:02:06;;;;;;;;;;;35.40;61.80;;;;;;5075519;28;19924;-75
2022/06/25 14:04:34;;;;;;;;;;;35.20;64.10;;;;;;5092715;28;19931;-74
2022/06/25 14:07:01;;;;;;;;;;;35.10;64.70;;;;;;5075217;28;20024;-75
2022/06/25 14:09:29;;;;;;;;;;;34.90;64.70;;;;;;5109481;28;19920;-75
2022/06/25 14:12:01;;;;;;;;;;;34.70;65.50;;;;;;5109278;28;19920;-74
2022/06/25 14:14:30;;;;;;;;;;;34.70;66.50;;;;;;5113003;28;19931;-75
2022/06/25 14:16:58;;;;;;;;;;;34.60;66.90;;;;;;5095814;28;20635;-74
2022/06/25 14:19:25;;;;;;;;;;;34.60;67.60;;;;;;5096193;28;20254;-73
2022/06/25 14:21:53;;;;;;;;;;;34.40;69.10;;;;;;5113092;28;19926;-72
2022/06/25 14:27:07;;;;;;;;;;;34.30;71.40;;;;;;5098585;28;19923;-73
2022/06/25 14:29:34;;;;;;;;;;;34.20;72.50;;;;;;5095862;28;20348;-72
2022/06/25 14:32:02;;;;;;;;;;;34.10;74.00;;;;;;5095957;28;19928;-73
2022/06/25 14:34:30;;;;;;;;;;;33.90;75.00;;;;;;5114265;28;20344;-72
2022/06/25 14:42:29;;;;;;;;;;;33.20;76.40;;;;;;5075602;28;19927;-73
2022/06/25 14:44:58;;;;;;;;;;;33.10;77.70;;;;;;5058368;28;19920;-73
2022/06/25 14:47:26;;;;;;;;;;;32.90;79.40;;;;;;5055005;28;19920;-73
2022/06/25 14:49:54;;;;;;;;;;;32.90;80.00;;;;;;5070942;28;20416;-73